Terminal Aerodrome Forecast
Issued by NWS

Home | Current Version | Previous Version | Text Only | Print | Product List | Glossary On
Versions: 1 2 3 4 5 6 7 8 9 10 11 12 13 14
000
FTUS44 KBMX 091722
TAFTOI
TAF
KTOI 091722Z 0918/1018 35010KT P6SM SKC
     FM100000 35004KT P6SM SKC
     FM101500 05006KT P6SM SKC=

USA.gov is the U.S. government's official web portal to all federal, state and local government web resources and services.